Time;durP1;ratioP1;P1;durP2;ratioP2;P2;SDS_P1;SDS_P2;PMS_P1;PMS_P2;Temp;Humidity;BMP_temperature;BMP_pressure;BME280_temperature;BME280_humidity;BME280_pressure;Samples;Min_cycle;Max_cycle;Signal;HPM_P1;HPM_P2
2022/09/19 00:00:13;;;;;;;1.00;0.60;;;;;;;11.54;100.00;101381.44;2087023;28;20679;-63
2022/09/19 00:01:17;;;;;;;1.10;0.63;;;;;;;11.55;100.00;101382.22;2087071;28;20453;-63
2022/09/19 00:02:17;;;;;;;0.77;0.50;;;;;;;11.57;100.00;101379.81;2087342;28;20442;-63
2022/09/19 00:03:18;;;;;;;1.23;0.60;;;;;;;11.54;100.00;101386.22;2085855;28;20952;-63
2022/09/19 00:04:22;;;;;;;1.00;0.53;;;;;;;11.54;100.00;101386.97;2087324;28;20204;-63
2022/09/19 00:05:22;;;;;;;1.77;0.60;;;;;;;11.55;100.00;101380.25;2087181;28;20192;-63
2022/09/19 00:06:26;;;;;;;1.97;0.70;;;;;;;11.55;100.00;101380.25;2086937;28;20439;-63
2022/09/19 00:07:26;;;;;;;1.87;0.80;;;;;;;11.57;100.00;101385.34;2087183;28;20680;-63
2022/09/19 00:08:27;;;;;;;0.87;0.47;;;;;;;11.53;100.00;101377.09;2088306;28;20944;-63
2022/09/19 00:09:30;;;;;;;1.33;0.70;;;;;;;11.49;100.00;101373.63;2087157;28;20202;-63
2022/09/19 00:10:37;;;;;;;1.50;0.50;;;;;;;11.44;100.00;101376.06;2087055;28;20392;-63
2022/09/19 00:11:44;;;;;;;1.60;0.60;;;;;;;11.45;100.00;101377.63;2087354;28;20448;-63
2022/09/19 00:12:44;;;;;;;2.77;1.00;;;;;;;11.30;100.00;101365.97;2087340;28;20461;-63
2022/09/19 00:13:48;;;;;;;3.60;1.00;;;;;;;11.37;100.00;101385.28;2086897;28;20491;-63
2022/09/19 00:14:48;;;;;;;5.10;1.10;;;;;;;11.37;100.00;101373.41;2087602;28;20202;-63
2022/09/19 00:15:50;;;;;;;1.53;0.70;;;;;;;11.33;100.00;101373.44;2086385;28;20454;-63
2022/09/19 00:16:55;;;;;;;2.40;0.60;;;;;;;11.29;100.00;101380.25;2087082;28;20176;-63
2022/09/19 00:17:56;;;;;;;4.83;0.87;;;;;;;11.27;100.00;101385.44;2086990;28;20494;-63
2022/09/19 00:19:04;;;;;;;4.17;0.70;;;;;;;11.23;100.00;101379.16;2087996;28;20468;-63
2022/09/19 00:20:06;;;;;;;3.07;0.80;;;;;;;10.82;100.00;101318.31;2087103;28;20729;-63
2022/09/19 00:21:07;;;;;;;2.07;0.70;;;;;;;11.20;100.00;101372.47;2086989;28;20492;-63
2022/09/19 00:22:09;;;;;;;1.10;0.70;;;;;;;10.85;100.00;101328.56;2087533;28;20503;-63
2022/09/19 00:24:45;;;;;;;1.87;0.60;;;;;;;10.94;100.00;101353.81;2086893;28;20516;-63
2022/09/19 00:25:45;;;;;;;3.20;0.80;;;;;;;11.12;100.00;101378.53;2087074;28;21139;-63
2022/09/19 00:26:46;;;;;;;3.93;0.77;;;;;;;11.10;100.00;101378.16;2087663;28;20832;-63
2022/09/19 00:27:47;;;;;;;2.70;0.70;;;;;;;11.11;100.00;101379.72;2086708;28;20296;-63
2022/09/19 00:28:47;;;;;;;4.60;1.23;;;;;;;10.67;100.00;101310.63;2086869;28;20480;-63
2022/09/19 00:29:48;;;;;;;5.30;1.10;;;;;;;11.14;100.00;101376.91;2086365;28;20299;-63
2022/09/19 00:30:49;;;;;;;2.93;0.73;;;;;;;11.03;100.00;101359.63;2086960;28;20214;-63
2022/09/19 00:31:51;;;;;;;8.97;1.37;;;;;;;11.02;100.00;101360.06;2087327;28;20194;-63
2022/09/19 00:32:53;;;;;;;5.40;1.20;;;;;;;11.17;100.00;101375.28;2087060;28;20191;-63
2022/09/19 00:33:54;;;;;;;3.83;0.70;;;;;;;11.03;100.00;101358.84;2088010;28;21016;-63
2022/09/19 00:34:55;;;;;;;2.10;0.80;;;;;;;11.17;100.00;101369.75;2087306;28;20823;-63
2022/09/19 00:35:58;;;;;;;3.27;0.80;;;;;;;11.18;100.00;101377.63;2087351;28;20508;-63
2022/09/19 00:36:58;;;;;;;1.60;0.90;;;;;;;11.21;100.00;101389.88;2087164;28;20455;-63
2022/09/19 00:37:59;;;;;;;4.00;1.07;;;;;;;11.21;100.00;101376.00;2087410;28;20514;-63
2022/09/19 00:39:00;;;;;;;1.73;0.60;;;;;;;11.21;100.00;101387.91;2087187;28;20297;-63
2022/09/19 00:40:01;;;;;;;2.40;0.80;;;;;;;11.20;100.00;101372.47;2086698;28;20673;-63
2022/09/19 00:41:01;;;;;;;0.80;0.67;;;;;;;11.14;100.00;101374.13;2086822;28;20249;-63
2022/09/19 00:42:02;;;;;;;2.07;0.50;;;;;;;11.13;100.00;101375.31;2087336;28;20287;-63
2022/09/19 00:43:03;;;;;;;2.23;0.80;;;;;;;11.19;100.00;101375.66;2087718;28;20649;-64
2022/09/19 00:44:23;;;;;;;1.10;0.60;;;;;;;11.12;100.00;101382.06;2087113;28;20191;-64
2022/09/19 00:45:23;;;;;;;1.53;0.80;;;;;;;10.62;100.00;101308.31;2087408;28;20257;-63
2022/09/19 00:46:27;;;;;;;2.83;0.90;;;;;;;11.07;100.00;101374.22;2086333;28;20458;-63
2022/09/19 00:47:35;;;;;;;1.53;0.70;;;;;;;11.02;100.00;101371.91;2085622;28;20668;-63
2022/09/19 00:48:38;;;;;;;0.97;0.70;;;;;;;11.04;100.00;101371.50;2087621;28;20448;-63
2022/09/19 00:49:44;;;;;;;4.37;1.10;;;;;;;11.03;100.00;101372.72;2086720;28;20489;-63
2022/09/19 00:50:50;;;;;;;2.63;0.80;;;;;;;10.54;100.00;101307.63;2087002;28;20829;-63
2022/09/19 00:51:55;;;;;;;1.60;0.63;;;;;;;10.97;100.00;101375.16;2086329;28;20453;-63
2022/09/19 00:53:17;;;;;;;2.47;0.63;;;;;;;11.01;100.00;101384.22;2085447;28;20450;-63
2022/09/19 00:54:40;;;;;;;4.10;0.70;;;;;;;11.00;100.00;101376.31;2086513;28;20453;-63
2022/09/19 00:55:41;;;;;;;1.23;0.60;;;;;;;10.99;100.00;101385.84;2086920;28;20422;-63
2022/09/19 00:56:50;;;;;;;2.03;0.83;;;;;;;10.98;100.00;101375.94;2086907;28;20446;-63
2022/09/19 00:58:10;;;;;;;5.30;1.20;;;;;;;10.96;100.00;101387.44;2087281;28;20457;-63
2022/09/19 00:59:11;;;;;;;3.40;1.03;;;;;;;10.96;100.00;101376.34;2088892;28;20517;-63
2022/09/19 01:00:12;;;;;;;5.63;1.17;;;;;;;10.96;100.00;101376.34;2088394;28;20478;-63
2022/09/19 01:01:14;;;;;;;4.33;1.03;;;;;;;10.97;100.00;101380.69;2087677;28;20836;-63
2022/09/19 01:02:21;;;;;;;8.17;1.17;;;;;;;10.98;100.00;101373.19;2089341;28;20977;-63
2022/09/19 01:03:24;;;;;;;6.00;1.20;;;;;;;10.96;100.00;101370.81;2088360;28;20460;-63
2022/09/19 01:04:35;;;;;;;4.90;1.30;;;;;;;10.95;100.00;101371.22;2088952;28;20457;-63
2022/09/19 01:05:48;;;;;;;6.07;1.20;;;;;;;10.59;100.00;101328.53;2088272;28;20569;-63
2022/09/19 01:07:07;;;;;;;5.63;0.90;;;;;;;10.97;100.00;101371.59;2088273;28;21239;-63
2022/09/19 01:08:22;;;;;;;3.37;0.80;;;;;;;10.97;100.00;101363.28;2088279;28;20460;-63
2022/09/19 01:09:40;;;;;;;3.87;0.97;;;;;;;10.95;100.00;101366.47;2087452;28;20432;-63
2022/09/19 01:10:56;;;;;;;2.43;0.80;;;;;;;10.96;100.00;101365.25;2088751;28;20425;-63
2022/09/19 01:12:06;;;;;;;6.93;1.40;;;;;;;10.93;100.00;101365.31;2088614;28;20441;-63
2022/09/19 01:13:20;;;;;;;9.50;1.70;;;;;;;10.93;100.00;101365.31;2088484;28;20449;-64
2022/09/19 01:14:53;;;;;;;9.03;1.50;;;;;;;10.92;100.00;101353.44;2088551;28;20457;-64
2022/09/19 01:16:11;;;;;;;4.63;1.10;;;;;;;10.92;100.00;101360.97;2087625;28;21030;-63
2022/09/19 01:17:45;;;;;;;5.33;1.20;;;;;;;10.90;100.00;101364.16;2087406;28;20571;-63
2022/09/19 01:19:17;;;;;;;2.93;1.00;;;;;;;10.84;100.00;101362.25;2088547;28;20446;-63
2022/09/19 01:20:32;;;;;;;3.93;0.97;;;;;;;10.90;100.00;101366.13;2087937;28;20442;-63
2022/09/19 01:21:51;;;;;;;3.20;0.90;;;;;;;10.90;100.00;101358.63;2088645;28;21010;-63
2022/09/19 01:23:23;;;;;;;1.73;0.60;;;;;;;10.90;100.00;101357.81;2089049;28;20450;-63
2022/09/19 01:24:54;;;;;;;3.90;0.87;;;;;;;10.78;100.00;101338.97;2087831;28;20970;-63
2022/09/19 01:25:58;;;;;;;5.47;0.93;;;;;;;10.88;100.00;101358.25;2088018;28;20507;-64
2022/09/19 01:27:18;;;;;;;10.23;1.17;;;;;;;10.84;100.00;101362.25;2087355;28;20523;-64
2022/09/19 01:28:27;;;;;;;10.37;1.87;;;;;;;10.81;100.00;101352.78;2088119;28;21008;-63
2022/09/19 01:29:37;;;;;;;14.53;2.00;;;;;;;10.75;100.00;101348.13;2087805;28;20456;-63
2022/09/19 01:30:44;;;;;;;9.03;1.43;;;;;;;10.79;100.00;101355.22;2087945;28;20441;-63
2022/09/19 01:31:51;;;;;;;6.23;1.30;;;;;;;10.79;100.00;101352.44;2087654;28;20485;-63
2022/09/19 01:33:07;;;;;;;4.70;1.20;;;;;;;10.62;100.00;101339.59;2087770;28;20812;-63
2022/09/19 01:34:25;;;;;;;7.83;1.57;;;;;;;10.80;100.00;101350.44;2088944;28;20452;-63
2022/09/19 01:35:30;;;;;;;5.73;1.20;;;;;;;10.76;100.00;101353.25;2088357;28;20460;-63
2022/09/19 01:36:37;;;;;;;2.73;1.10;;;;;;;10.73;100.00;101347.75;2088318;28;20784;-63
2022/09/19 01:37:44;;;;;;;5.43;1.13;;;;;;;10.77;100.00;101349.28;2088027;28;21006;-63
2022/09/19 01:38:46;;;;;;;6.50;0.90;;;;;;;10.69;100.00;101330.38;2088622;28;20459;-63
2022/09/19 01:39:50;;;;;;;4.37;1.17;;;;;;;9.80;100.00;101190.59;2086935;28;20549;-63
2022/09/19 01:40:52;;;;;;;3.23;1.00;;;;;;;10.82;100.00;101343.25;2088101;28;20551;-63
2022/09/19 01:41:54;;;;;;;3.27;1.07;;;;;;;10.85;100.00;101339.66;2088341;28;20472;-63
2022/09/19 01:42:56;;;;;;;4.70;1.30;;;;;;;10.87;100.00;101340.03;2088352;28;20455;-63
2022/09/19 01:44:05;;;;;;;3.83;1.07;;;;;;;10.87;100.00;101347.56;2088170;28;20458;-64
2022/09/19 01:45:10;;;;;;;5.10;1.10;;;;;;;10.47;100.00;101268.13;2088109;28;21018;-63
2022/09/19 01:46:40;;;;;;;6.40;1.30;;;;;;;10.89;100.00;101348.72;2088248;28;20951;-63
2022/09/19 01:48:24;;;;;;;3.70;0.90;;;;;;;10.89;100.00;101345.16;2087570;28;20454;-63
2022/09/19 01:49:51;;;;;;;6.23;0.90;;;;;;;10.87;100.00;101350.34;2082776;28;20450;-63
2022/09/19 01:51:29;;;;;;;6.63;1.10;;;;;;;10.78;100.00;101342.56;2088067;28;20415;-63
2022/09/19 01:53:12;;;;;;;8.73;1.60;;;;;;;10.67;100.00;101344.66;2087535;28;20454;-63
2022/09/19 01:54:38;;;;;;;6.40;1.20;;;;;;;10.66;100.00;101343.09;2087611;28;20427;-63
2022/09/19 01:55:45;;;;;;;10.90;1.53;;;;;;;10.64;100.00;101342.72;2088298;28;20452;-64
2022/09/19 01:56:56;;;;;;;7.60;1.47;;;;;;;10.63;100.00;101343.94;2086819;28;20450;-64
2022/09/19 01:58:13;;;;;;;8.83;1.63;;;;;;;10.62;100.00;101349.88;2088130;28;20815;-64
2022/09/19 01:59:40;;;;;;;3.67;1.10;;;;;;;10.62;100.00;101349.88;2088112;28;20437;-64
2022/09/19 02:01:10;;;;;;;7.93;1.23;;;;;;;10.60;100.00;101347.53;2087869;28;20441;-63
2022/09/19 02:02:46;;;;;;;5.93;1.13;;;;;;;10.59;100.00;101345.97;2087965;28;20464;-63
2022/09/19 02:04:13;;;;;;;3.37;0.93;;;;;;;10.10;100.00;101266.19;2087901;28;21029;-64
2022/09/19 02:05:27;;;;;;;6.60;1.00;;;;;;;10.56;100.00;101344.00;2087666;28;20551;-63
2022/09/19 02:06:49;;;;;;;4.23;1.10;;;;;;;10.54;100.00;101342.84;2087849;28;20445;-63
2022/09/19 02:08:01;;;;;;;1.83;0.80;;;;;;;10.51;100.00;101340.91;2088153;28;20413;-63
2022/09/19 02:09:05;;;;;;;2.80;1.17;;;;;;;9.94;100.00;101254.13;2087573;28;20425;-63
2022/09/19 02:10:13;;;;;;;8.17;1.47;;;;;;;10.45;100.00;101337.81;2088398;28;20429;-63
2022/09/19 02:11:17;;;;;;;6.13;1.63;;;;;;;10.44;100.00;101343.75;2087543;28;20836;-63
2022/09/19 02:12:20;;;;;;;3.40;1.13;;;;;;;10.27;100.00;101314.28;2088497;28;20503;-63
2022/09/19 02:13:27;;;;;;;4.43;1.00;;;;;;;10.37;100.00;101339.09;2087820;28;20884;-63
2022/09/19 02:14:32;;;;;;;3.20;1.10;;;;;;;10.35;100.00;101338.72;2088372;28;20487;-64
2022/09/19 02:15:34;;;;;;;3.60;1.30;;;;;;;10.26;100.00;101335.66;2088162;28;20437;-63
2022/09/19 02:16:47;;;;;;;6.70;1.90;;;;;;;10.24;100.00;101345.59;2087844;28;20450;-63
2022/09/19 02:17:55;;;;;;;3.97;1.10;;;;;;;10.25;100.00;101352.72;2087579;28;20451;-63
2022/09/19 02:19:04;;;;;;;3.57;1.10;;;;;;;10.18;100.00;101336.94;2087479;28;20942;-63
2022/09/19 02:20:12;;;;;;;4.87;1.20;;;;;;;10.15;100.00;101329.44;2087567;28;20433;-63
2022/09/19 02:21:20;;;;;;;2.60;1.03;;;;;;;10.13;100.00;101328.28;2087667;28;20441;-63
2022/09/19 02:22:27;;;;;;;7.07;1.40;;;;;;;9.65;100.00;101256.41;2088782;28;20429;-63
2022/09/19 02:23:30;;;;;;;4.10;1.40;;;;;;;10.07;100.00;101336.28;2087866;28;20527;-63
2022/09/19 02:24:36;;;;;;;4.13;1.43;;;;;;;10.06;100.00;101334.72;2087620;28;20482;-63
2022/09/19 02:25:38;;;;;;;3.53;1.10;;;;;;;10.12;100.00;101337.78;2088145;28;20429;-63
2022/09/19 02:26:41;;;;;;;5.85;1.50;;;;;;;10.13;100.00;101333.81;2087409;28;20932;-63
2022/09/19 02:27:52;;;;;;;4.70;1.37;;;;;;;10.16;100.00;101335.78;2086473;28;20278;-63
2022/09/19 02:28:56;;;;;;;6.10;1.40;;;;;;;10.11;100.00;101319.63;2086953;28;20528;-63
2022/09/19 02:30:05;;;;;;;5.37;1.27;;;;;;;9.57;100.00;101229.19;2087787;28;20864;-63
2022/09/19 02:31:06;;;;;;;3.30;1.27;;;;;;;10.17;100.00;101329.03;2087245;28;20862;-63
2022/09/19 02:32:11;;;;;;;2.03;1.00;;;;;;;10.18;100.00;101338.91;2088151;28;20414;-63
2022/09/19 02:33:12;;;;;;;2.70;1.20;;;;;;;10.21;100.00;101335.34;2088253;28;20496;-63
2022/09/19 02:34:13;;;;;;;4.43;1.30;;;;;;;10.23;100.00;101335.69;2087679;28;20829;-63
2022/09/19 02:35:36;;;;;;;6.80;1.50;;;;;;;10.25;100.00;101341.63;2087239;28;20945;-63
2022/09/19 02:36:46;;;;;;;4.53;1.30;;;;;;;10.28;100.00;101338.00;2088135;28;20403;-63
2022/09/19 02:37:54;;;;;;;5.27;1.27;;;;;;;10.29;100.00;101337.59;2087410;28;20413;-63
2022/09/19 02:39:13;;;;;;;7.60;1.90;;;;;;;10.32;100.00;101338.75;2088440;28;20804;-63
2022/09/19 02:40:30;;;;;;;11.73;2.10;;;;;;;10.33;100.00;101338.34;2087289;28;20449;-63
2022/09/19 02:41:37;;;;;;;15.93;2.20;;;;;;;9.58;100.00;101217.72;2087285;28;20417;-63
2022/09/19 02:42:49;;;;;;;9.77;1.63;;;;;;;10.38;100.00;101337.09;2087949;28;20427;-63
2022/09/19 02:44:18;;;;;;;13.47;1.90;;;;;;;10.41;100.00;101336.28;2087606;28;20856;-63
2022/09/19 02:45:26;;;;;;;8.33;1.97;;;;;;;10.42;100.00;101338.66;2087413;28;20452;-63
2022/09/19 02:46:42;;;;;;;9.20;2.20;;;;;;;10.29;100.00;101309.91;2087861;28;20453;-63
2022/09/19 02:47:57;;;;;;;6.37;1.60;;;;;;;10.45;100.00;101335.03;2087728;28;20449;-63
2022/09/19 02:49:05;;;;;;;7.67;1.43;;;;;;;10.06;100.00;101270.22;2088117;28;20483;-63
2022/09/19 02:50:22;;;;;;;5.67;1.40;;;;;;;10.06;100.00;101264.69;2087043;28;20957;-63
2022/09/19 02:51:35;;;;;;;6.70;1.23;;;;;;;10.49;100.00;101335.00;2087585;28;20452;-63
2022/09/19 02:52:37;;;;;;;3.87;1.13;;;;;;;10.50;100.00;101331.81;2087832;28;20493;-63
2022/09/19 02:53:43;;;;;;;6.57;1.53;;;;;;;10.51;100.00;101338.16;2087862;28;20446;-63
2022/09/19 02:54:49;;;;;;;5.33;1.57;;;;;;;10.54;100.00;101329.00;2087639;28;20859;-63
2022/09/19 02:55:56;;;;;;;7.67;1.73;;;;;;;10.55;100.00;101334.13;2087993;28;20443;-63
2022/09/19 02:57:01;;;;;;;5.97;1.50;;;;;;;10.58;100.00;101338.03;2087682;28;20445;-63
2022/09/19 02:58:03;;;;;;;4.77;1.30;;;;;;;10.03;100.00;101244.09;2087914;28;20453;-64
2022/09/19 02:59:33;;;;;;;4.53;1.27;;;;;;;10.62;100.00;101328.50;2087639;28;20439;-63
2022/09/19 03:00:37;;;;;;;2.63;1.03;;;;;;;9.89;100.00;101210.28;2086183;28;20462;-63
2022/09/19 03:01:44;;;;;;;4.97;1.20;;;;;;;10.64;100.00;101326.09;2087661;28;20499;-63
2022/09/19 03:02:56;;;;;;;7.63;1.40;;;;;;;10.66;100.00;101326.44;2087839;28;20453;-63
2022/09/19 03:04:14;;;;;;;7.17;1.40;;;;;;;10.68;100.00;101329.63;2087495;28;20433;-63
2022/09/19 03:05:19;;;;;;;7.67;1.77;;;;;;;10.64;100.00;101333.63;2086764;28;20477;-63
2022/09/19 03:06:24;;;;;;;14.07;2.30;;;;;;;10.60;100.00;101330.91;2087820;28;20954;-63
2022/09/19 03:07:30;;;;;;;11.00;2.10;;;;;;;10.64;100.00;101326.09;2087060;28;20469;-63
2022/09/19 03:08:36;;;;;;;11.70;2.17;;;;;;;10.57;100.00;101300.47;2087679;28;20515;-63
2022/09/19 03:09:36;;;;;;;12.47;2.07;;;;;;;10.64;100.00;101322.53;2087239;28;21001;-63
2022/09/19 03:10:42;;;;;;;12.97;2.20;;;;;;;10.60;100.00;101316.25;2087558;28;20794;-64
2022/09/19 03:11:51;;;;;;;10.53;2.00;;;;;;;10.55;100.00;101336.91;2087855;28;20191;-63
2022/09/19 03:12:58;;;;;;;8.00;1.77;;;;;;;10.55;100.00;101322.28;2088017;28;20446;-63
2022/09/19 03:13:59;;;;;;;6.17;1.60;;;;;;;10.55;100.00;101320.25;2087486;28;20872;-63
2022/09/19 03:15:00;;;;;;;5.60;1.53;;;;;;;10.57;100.00;101322.63;2087201;28;20442;-63
2022/09/19 03:16:06;;;;;;;8.07;1.57;;;;;;;10.11;100.00;101247.59;2087364;28;20523;-63
2022/09/19 03:17:08;;;;;;;8.53;1.63;;;;;;;10.60;100.00;101324.56;2086889;28;20178;-63
2022/09/19 03:18:13;;;;;;;8.80;1.80;;;;;;;10.61;100.00;101331.69;2088638;28;20438;-63
2022/09/19 03:19:14;;;;;;;11.93;1.70;;;;;;;10.60;100.00;101317.03;2088256;28;20418;-63
2022/09/19 03:20:14;;;;;;;8.33;1.90;;;;;;;10.62;100.00;101322.97;2086334;28;20481;-63
2022/09/19 03:21:21;;;;;;;12.27;1.90;;;;;;;10.66;100.00;101325.69;2087301;28;20649;-63
2022/09/19 03:22:22;;;;;;;11.63;1.67;;;;;;;10.66;100.00;101311.81;2087723;28;20281;-63
2022/09/19 03:23:29;;;;;;;8.47;1.67;;;;;;;10.27;100.00;101256.09;2086093;28;20464;-63
2022/09/19 03:24:29;;;;;;;6.65;1.45;;;;;;;10.69;100.00;101319.28;2086885;28;20204;-64
2022/09/19 03:25:30;;;;;;;6.33;1.50;;;;;;;10.71;100.00;101314.13;2087103;28;20275;-63
2022/09/19 03:26:34;;;;;;;7.90;1.60;;;;;;;10.73;100.00;101320.03;2087524;28;20184;-63
2022/09/19 03:27:36;;;;;;;3.60;1.30;;;;;;;10.72;100.00;101315.69;2086307;28;20423;-63
2022/09/19 03:28:37;;;;;;;5.70;1.37;;;;;;;10.74;100.00;101316.84;2087395;28;20467;-63
2022/09/19 03:29:38;;;;;;;5.70;1.10;;;;;;;10.76;100.00;101317.22;2087832;28;20496;-63
2022/09/19 03:30:38;;;;;;;4.93;1.40;;;;;;;10.77;100.00;101315.22;2087415;28;21072;-64
2022/09/19 03:31:39;;;;;;;7.37;1.30;;;;;;;10.78;100.00;101314.03;2087580;28;20202;-64
2022/09/19 03:32:41;;;;;;;4.67;1.17;;;;;;;10.74;100.00;101311.31;2087168;28;20193;-63
2022/09/19 03:33:41;;;;;;;3.60;1.30;;;;;;;10.74;100.00;101316.84;2087594;28;20196;-63
2022/09/19 03:34:42;;;;;;;4.00;1.30;;;;;;;10.70;100.00;101318.09;2087797;28;20535;-63
2022/09/19 03:35:44;;;;;;;4.60;1.10;;;;;;;10.70;100.00;101309.78;2087386;28;20188;-63
2022/09/19 03:36:45;;;;;;;2.07;1.10;;;;;;;10.71;100.00;101330.78;2087459;28;20437;-63
2022/09/19 03:37:45;;;;;;;3.20;1.10;;;;;;;10.73;100.00;101314.50;2087665;28;20972;-63
2022/09/19 03:38:46;;;;;;;2.33;0.97;;;;;;;10.64;100.00;101298.38;2087530;28;20248;-63
2022/09/19 03:39:46;;;;;;;6.40;1.20;;;;;;;10.72;100.00;101308.16;2086185;28;20343;-63
2022/09/19 03:40:47;;;;;;;6.83;1.63;;;;;;;10.62;100.00;101309.09;2086908;28;20200;-63
2022/09/19 03:41:48;;;;;;;7.13;1.87;;;;;;;10.55;100.00;101298.09;2087629;28;20190;-63
2022/09/19 03:42:52;;;;;;;7.53;1.50;;;;;;;10.63;100.00;101301.56;2086870;28;20573;-63
2022/09/19 03:43:53;;;;;;;6.60;1.83;;;;;;;10.60;100.00;101305.94;2087214;28;20448;-63
2022/09/19 03:44:54;;;;;;;7.40;1.33;;;;;;;10.64;100.00;101292.84;2087052;28;20473;-63
2022/09/19 03:45:56;;;;;;;10.50;1.60;;;;;;;10.04;100.00;101206.94;2087679;28;20680;-63
2022/09/19 03:46:57;;;;;;;5.03;1.30;;;;;;;10.67;100.00;101300.28;2087025;28;20723;-63
2022/09/19 03:47:57;;;;;;;5.17;1.47;;;;;;;10.62;100.00;101295.25;2088102;28;20855;-64
2022/09/19 03:49:03;;;;;;;6.63;1.37;;;;;;;10.65;100.00;101305.47;2087859;28;20196;-64
2022/09/19 03:50:06;;;;;;;9.60;1.50;;;;;;;10.65;100.00;101302.72;2087145;28;20252;-63
2022/09/19 03:51:07;;;;;;;5.80;1.60;;;;;;;10.58;100.00;101285.38;2086903;28;20509;-63
2022/09/19 03:52:07;;;;;;;9.53;1.77;;;;;;;10.70;100.00;101305.03;2087060;28;20447;-63
2022/09/19 03:53:09;;;;;;;9.37;1.80;;;;;;;10.71;100.00;101309.34;2087184;28;20201;-63
2022/09/19 03:54:10;;;;;;;10.37;1.80;;;;;;;10.72;100.00;101308.16;2087794;28;20370;-63
2022/09/19 03:55:10;;;;;;;7.40;1.77;;;;;;;10.72;100.00;101310.16;2086780;28;20429;-63
2022/09/19 03:56:12;;;;;;;7.60;1.40;;;;;;;10.73;100.00;101306.19;2087867;28;20211;-63
2022/09/19 03:57:14;;;;;;;6.77;1.40;;;;;;;10.73;100.00;101306.19;2087354;28;20192;-63
2022/09/19 03:58:16;;;;;;;10.17;1.53;;;;;;;10.72;100.00;101304.63;2087021;28;20898;-63
2022/09/19 03:59:16;;;;;;;10.67;1.40;;;;;;;10.72;100.00;101308.16;2087124;28;20445;-63
2022/09/19 04:00:17;;;;;;;5.03;1.53;;;;;;;10.74;100.00;101307.75;2086434;28;20599;-63
2022/09/19 04:01:17;;;;;;;9.47;1.43;;;;;;;10.73;100.00;101308.94;2086866;28;20192;-63
2022/09/19 04:02:18;;;;;;;7.23;1.57;;;;;;;10.61;100.00;101290.88;2087452;28;20199;-63
2022/09/19 04:03:18;;;;;;;9.10;1.60;;;;;;;10.74;100.00;101304.97;2086428;28;20182;-63
2022/09/19 04:04:19;;;;;;;5.30;1.60;;;;;;;10.76;100.00;101302.59;2087308;28;20184;-63
2022/09/19 04:05:20;;;;;;;10.73;1.87;;;;;;;10.74;100.00;101299.41;2087781;28;20225;-63
2022/09/19 04:06:21;;;;;;;14.57;1.80;;;;;;;10.53;100.00;101286.66;2088001;28;20974;-63
2022/09/19 04:07:21;;;;;;;11.63;2.53;;;;;;;10.64;100.00;101298.38;2086833;28;20237;-63
2022/09/19 04:08:22;;;;;;;18.53;2.57;;;;;;;10.61;100.00;101296.44;2087107;28;20193;-63
2022/09/19 04:09:22;;;;;;;7.53;1.90;;;;;;;10.58;100.00;101291.72;2086063;28;20198;-63
2022/09/19 04:10:23;;;;;;;5.53;1.47;;;;;;;10.32;100.00;101263.97;2086221;28;20245;-64
2022/09/19 04:11:23;;;;;;;6.97;1.87;;;;;;;10.44;100.00;101288.34;2085325;28;20204;-63
2022/09/19 04:12:24;;;;;;;3.73;1.10;;;;;;;10.40;100.00;101285.63;2086748;28;20187;-63
2022/09/19 04:13:27;;;;;;;2.83;1.10;;;;;;;10.35;100.00;101290.84;2087446;28;20294;-64
2022/09/19 04:14:28;;;;;;;3.20;1.00;;;;;;;10.32;100.00;101294.44;2087796;28;20184;-63
2022/09/19 04:15:28;;;;;;;1.77;0.80;;;;;;;10.29;100.00;101284.97;2086402;28;20480;-63
2022/09/19 04:16:29;;;;;;;3.10;0.80;;;;;;;10.22;100.00;101273.97;2087013;28;20198;-63
2022/09/19 04:17:29;;;;;;;2.13;0.90;;;;;;;10.27;100.00;101289.34;2086740;28;20198;-63
2022/09/19 04:18:30;;;;;;;5.20;0.90;;;;;;;9.49;100.00;101173.13;2087330;28;20195;-63
2022/09/19 04:19:30;;;;;;;4.97;1.33;;;;;;;10.20;100.00;101292.97;2086825;28;20223;-63
2022/09/19 04:20:32;;;;;;;4.47;1.03;;;;;;;10.13;100.00;101290.31;2085744;28;20219;-63
2022/09/19 04:21:34;;;;;;;3.47;1.17;;;;;;;9.76;100.00;101242.44;2086849;28;20179;-63
2022/09/19 04:22:37;;;;;;;3.30;1.20;;;;;;;10.05;100.00;101285.28;2087833;28;20499;-63
2022/09/19 04:23:37;;;;;;;6.90;1.33;;;;;;;9.99;100.00;101287.66;2087429;28;20473;-63
2022/09/19 04:24:39;;;;;;;6.17;1.70;;;;;;;9.98;100.00;101291.63;2086109;28;20441;-64
2022/09/19 04:25:39;;;;;;;5.93;1.70;;;;;;;9.99;100.00;101292.44;2086759;28;20196;-64
2022/09/19 04:26:43;;;;;;;3.23;1.40;;;;;;;9.89;100.00;101273.94;2087239;28;20508;-63
2022/09/19 04:27:45;;;;;;;3.60;1.50;;;;;;;9.95;100.00;101286.13;2085810;28;20244;-63
2022/09/19 04:28:47;;;;;;;2.23;1.20;;;;;;;9.85;100.00;101281.50;2085956;28;20673;-63
2022/09/19 04:29:48;;;;;;;6.87;1.43;;;;;;;9.93;100.00;101289.31;2086192;28;20571;-63
2022/09/19 04:30:48;;;;;;;6.80;2.83;;;;;;;9.34;100.00;101202.16;2086285;28;20927;-64
2022/09/19 04:31:49;;;;;;;13.33;5.63;;;;;;;9.81;100.00;101284.31;2087741;28;20448;-64
2022/09/19 04:32:50;;;;;;;19.67;5.97;;;;;;;9.82;100.00;101279.53;2087504;28;20198;-64
2022/09/19 04:33:50;;;;;;;16.70;4.90;;;;;;;9.92;100.00;101287.75;2088424;28;20286;-64
2022/09/19 04:34:55;;;;;;;15.30;3.77;;;;;;;9.97;100.00;101289.28;2088735;28;21177;-64
2022/09/19 04:35:57;;;;;;;8.60;4.10;;;;;;;9.98;100.00;101288.06;2088907;28;20221;-64
2022/09/19 04:36:58;;;;;;;11.23;3.87;;;;;;;9.99;100.00;101287.66;2087050;28;20461;-63
2022/09/19 04:37:59;;;;;;;12.13;4.90;;;;;;;10.00;100.00;101294.00;2087087;28;20972;-63
2022/09/19 04:39:03;;;;;;;9.63;4.10;;;;;;;10.01;100.00;101290.81;2087678;28;20890;-64
2022/09/19 04:40:04;;;;;;;14.43;3.80;;;;;;;10.02;100.00;101297.13;2087552;28;20190;-64
2022/09/19 04:41:06;;;;;;;13.23;4.73;;;;;;;10.02;100.00;101292.38;2087652;28;20428;-64
2022/09/19 04:42:06;;;;;;;15.10;4.80;;;;;;;10.01;100.00;101296.34;2087932;28;20224;-64
2022/09/19 04:43:09;;;;;;;12.83;3.40;;;;;;;9.96;100.00;101284.94;2083432;28;21005;-64
2022/09/19 04:44:10;;;;;;;16.08;4.40;;;;;;;9.76;100.00;101267.34;2086684;28;20240;-64
2022/09/19 04:45:12;;;;;;;16.30;6.20;;;;;;;9.99;100.00;101297.97;2084348;28;20219;-64
2022/09/19 04:46:15;;;;;;;13.17;5.23;;;;;;;9.32;100.00;101193.47;2083929;28;21051;-64
2022/09/19 04:47:15;;;;;;;18.53;7.63;;;;;;;10.00;100.00;101302.31;2083455;28;20432;-64
2022/09/19 04:48:17;;;;;;;18.80;8.13;;;;;;;9.99;100.00;101292.44;2088326;28;20523;-64
2022/09/19 04:49:18;;;;;;;18.50;10.10;;;;;;;10.06;100.00;101297.91;2087107;28;20202;-64
2022/09/19 04:50:18;;;;;;;17.73;10.53;;;;;;;10.11;100.00;101300.22;2084380;28;20944;-64
2022/09/19 04:51:19;;;;;;;17.27;7.10;;;;;;;9.29;100.00;101165.88;2080234;28;20272;-64
2022/09/19 04:52:19;;;;;;;14.70;6.27;;;;;;;10.17;100.00;101293.03;2082266;28;20244;-64
2022/09/19 04:53:23;;;;;;;7.33;3.80;;;;;;;9.77;100.00;101230.16;2082951;28;20236;-64
2022/09/19 04:54:23;;;;;;;12.47;4.40;;;;;;;10.21;100.00;101291.00;2083747;28;20196;-64
2022/09/19 04:55:25;;;;;;;16.47;10.03;;;;;;;10.24;100.00;101292.97;2085311;28;20460;-64
2022/09/19 04:56:26;;;;;;;18.73;11.15;;;;;;;9.63;100.00;101191.59;2085780;28;20644;-64
2022/09/19 04:57:27;;;;;;;19.30;13.10;;;;;;;10.27;100.00;101292.13;2084659;28;20195;-64
2022/09/19 04:58:27;;;;;;;24.17;16.37;;;;;;;10.26;100.00;101304.41;2085397;28;21019;-64
2022/09/19 04:59:28;;;;;;;24.57;13.07;;;;;;;10.27;100.00;101292.13;2083413;28;20182;-64
2022/09/19 05:00:38;;;;;;;20.43;9.33;;;;;;;10.30;100.00;101303.16;2084063;28;20593;-64
2022/09/19 05:01:39;;;;;;;14.82;7.57;;;;;;;10.31;100.00;101298.41;2085053;28;20187;-63
2022/09/19 05:02:39;;;;;;;16.07;7.93;;;;;;;10.32;100.00;101308.28;2082429;28;20198;-63
2022/09/19 05:03:43;;;;;;;12.63;8.00;;;;;;;10.36;100.00;101303.50;2085757;28;20637;-64
2022/09/19 05:04:45;;;;;;;13.53;5.80;;;;;;;10.40;100.00;101301.47;2085847;28;20258;-63
2022/09/19 05:05:50;;;;;;;18.57;10.00;;;;;;;10.40;100.00;101310.56;2085272;28;20454;-63